sensor_id;sensor_type;location;lat;lon;timestamp;temperature;humidity
573;DHT22;271;51.114;13.780;2022-09-01T00:02:01;13.50;1.00
573;DHT22;271;51.114;13.780;2022-09-01T00:04:34;13.50;1.00
573;DHT22;271;51.114;13.780;2022-09-01T00:07:03;13.50;1.00
573;DHT22;271;51.114;13.780;2022-09-01T00:09:30;13.50;1.00
573;DHT22;271;51.114;13.780;2022-09-01T00:11:59;13.40;1.00
573;DHT22;271;51.114;13.780;2022-09-01T00:14:28;13.40;1.00
573;DHT22;271;51.114;13.780;2022-09-01T00:16:55;13.40;1.00
573;DHT22;271;51.114;13.780;2022-09-01T00:19:23;13.40;1.00
573;DHT22;271;51.114;13.780;2022-09-01T00:21:50;13.40;1.00
573;DHT22;271;51.114;13.780;2022-09-01T00:24:18;13.20;1.00
573;DHT22;271;51.114;13.780;2022-09-01T00:26:46;13.30;1.00
573;DHT22;271;51.114;13.780;2022-09-01T00:29:14;13.20;1.00
573;DHT22;271;51.114;13.780;2022-09-01T00:31:42;13.10;1.00
573;DHT22;271;51.114;13.780;2022-09-01T00:34:09;13.10;1.00
573;DHT22;271;51.114;13.780;2022-09-01T00:36:36;13.10;1.00
573;DHT22;271;51.114;13.780;2022-09-01T00:39:05;13.10;1.00
573;DHT22;271;51.114;13.780;2022-09-01T00:41:34;13.00;1.00
573;DHT22;271;51.114;13.780;2022-09-01T00:44:05;13.00;1.00
573;DHT22;271;51.114;13.780;2022-09-01T00:46:38;13.00;1.00
573;DHT22;271;51.114;13.780;2022-09-01T00:49:09;13.00;1.00
573;DHT22;271;51.114;13.780;2022-09-01T00:51:39;12.90;1.00
573;DHT22;271;51.114;13.780;2022-09-01T00:54:07;12.90;1.00
573;DHT22;271;51.114;13.780;2022-09-01T00:56:38;12.70;1.00
573;DHT22;271;51.114;13.780;2022-09-01T00:59:06;12.70;1.00
573;DHT22;271;51.114;13.780;2022-09-01T01:01:37;12.80;1.00
573;DHT22;271;51.114;13.780;2022-09-01T01:04:06;12.80;1.00
573;DHT22;271;51.114;13.780;2022-09-01T01:06:40;12.70;1.00
573;DHT22;271;51.114;13.780;2022-09-01T01:09:08;12.70;1.00
573;DHT22;271;51.114;13.780;2022-09-01T01:11:35;12.60;1.00
573;DHT22;271;51.114;13.780;2022-09-01T01:14:05;12.60;1.00
573;DHT22;271;51.114;13.780;2022-09-01T01:16:39;12.60;1.00
573;DHT22;271;51.114;13.780;2022-09-01T01:19:14;12.50;1.00
573;DHT22;271;51.114;13.780;2022-09-01T01:22:09;12.50;1.00
573;DHT22;271;51.114;13.780;2022-09-01T01:24:57;12.60;1.00
573;DHT22;271;51.114;13.780;2022-09-01T01:27:30;12.60;1.00
573;DHT22;271;51.114;13.780;2022-09-01T01:29:59;12.60;1.00
573;DHT22;271;51.114;13.780;2022-09-01T01:32:26;12.60;1.00
573;DHT22;271;51.114;13.780;2022-09-01T01:34:53;12.50;1.00
573;DHT22;271;51.114;13.780;2022-09-01T01:37:20;12.50;1.00
573;DHT22;271;51.114;13.780;2022-09-01T01:39:50;12.50;1.00
573;DHT22;271;51.114;13.780;2022-09-01T01:42:18;12.50;1.00
573;DHT22;271;51.114;13.780;2022-09-01T01:44:45;12.40;1.00
573;DHT22;271;51.114;13.780;2022-09-01T01:47:12;12.40;1.00
573;DHT22;271;51.114;13.780;2022-09-01T01:49:42;12.40;1.00
573;DHT22;271;51.114;13.780;2022-09-01T01:52:09;12.30;1.00
573;DHT22;271;51.114;13.780;2022-09-01T01:54:41;12.40;1.00
573;DHT22;271;51.114;13.780;2022-09-01T01:57:08;12.50;1.00
573;DHT22;271;51.114;13.780;2022-09-01T01:59:36;12.40;1.00
573;DHT22;271;51.114;13.780;2022-09-01T02:02:05;12.50;1.00
573;DHT22;271;51.114;13.780;2022-09-01T02:04:34;12.40;1.00
573;DHT22;271;51.114;13.780;2022-09-01T02:07:01;12.40;1.00
573;DHT22;271;51.114;13.780;2022-09-01T02:09:28;12.50;1.00
573;DHT22;271;51.114;13.780;2022-09-01T02:11:55;12.50;1.00
573;DHT22;271;51.114;13.780;2022-09-01T02:14:23;12.40;1.00
573;DHT22;271;51.114;13.780;2022-09-01T02:16:51;12.40;1.00
573;DHT22;271;51.114;13.780;2022-09-01T02:19:20;12.40;1.00
573;DHT22;271;51.114;13.780;2022-09-01T02:21:47;12.40;1.00
573;DHT22;271;51.114;13.780;2022-09-01T02:24:21;12.40;1.00
573;DHT22;271;51.114;13.780;2022-09-01T02:26:49;12.40;1.00
573;DHT22;271;51.114;13.780;2022-09-01T02:29:19;12.40;1.00
573;DHT22;271;51.114;13.780;2022-09-01T02:31:49;12.40;1.00
573;DHT22;271;51.114;13.780;2022-09-01T02:34:19;12.40;1.00
573;DHT22;271;51.114;13.780;2022-09-01T02:36:51;12.30;1.00
573;DHT22;271;51.114;13.780;2022-09-01T02:39:20;12.30;1.00
573;DHT22;271;51.114;13.780;2022-09-01T02:41:47;12.30;1.00
573;DHT22;271;51.114;13.780;2022-09-01T02:44:14;12.30;1.00
573;DHT22;271;51.114;13.780;2022-09-01T02:46:45;12.30;1.00
573;DHT22;271;51.114;13.780;2022-09-01T02:49:14;12.30;1.00
573;DHT22;271;51.114;13.780;2022-09-01T02:51:45;12.30;1.00
573;DHT22;271;51.114;13.780;2022-09-01T02:54:16;12.40;1.00
573;DHT22;271;51.114;13.780;2022-09-01T02:56:44;12.30;1.00
573;DHT22;271;51.114;13.780;2022-09-01T02:59:13;12.30;1.00
573;DHT22;271;51.114;13.780;2022-09-01T03:01:40;12.30;1.00
573;DHT22;271;51.114;13.780;2022-09-01T03:04:10;12.30;1.00
573;DHT22;271;51.114;13.780;2022-09-01T03:06:38;12.30;1.00
573;DHT22;271;51.114;13.780;2022-09-01T03:09:08;12.30;1.00
573;DHT22;271;51.114;13.780;2022-09-01T03:11:37;12.30;1.00
573;DHT22;271;51.114;13.780;2022-09-01T03:14:06;12.30;1.00
573;DHT22;271;51.114;13.780;2022-09-01T03:16:33;12.30;1.00
573;DHT22;271;51.114;13.780;2022-09-01T03:19:01;12.30;1.00
573;DHT22;271;51.114;13.780;2022-09-01T03:21:32;12.30;1.00
573;DHT22;271;51.114;13.780;2022-09-01T03:23:58;12.30;1.00
573;DHT22;271;51.114;13.780;2022-09-01T03:26:30;12.40;1.00
573;DHT22;271;51.114;13.780;2022-09-01T03:28:57;12.40;1.00
573;DHT22;271;51.114;13.780;2022-09-01T03:31:24;12.40;1.00
573;DHT22;271;51.114;13.780;2022-09-01T03:33:53;12.30;1.00
573;DHT22;271;51.114;13.780;2022-09-01T03:36:22;12.40;1.00
573;DHT22;271;51.114;13.780;2022-09-01T03:38:50;12.40;1.00
573;DHT22;271;51.114;13.780;2022-09-01T03:41:19;12.30;1.00
573;DHT22;271;51.114;13.780;2022-09-01T03:43:47;12.20;1.00
573;DHT22;271;51.114;13.780;2022-09-01T03:46:17;12.30;1.00
573;DHT22;271;51.114;13.780;2022-09-01T03:48:46;12.30;1.00
573;DHT22;271;51.114;13.780;2022-09-01T03:51:13;12.40;1.00
573;DHT22;271;51.114;13.780;2022-09-01T03:53:40;12.30;1.00
573;DHT22;271;51.114;13.780;2022-09-01T03:56:11;12.30;1.00
573;DHT22;271;51.114;13.780;2022-09-01T03:58:38;12.30;1.00
573;DHT22;271;51.114;13.780;2022-09-01T04:01:09;12.30;1.00
573;DHT22;271;51.114;13.780;2022-09-01T04:03:37;12.20;1.00
573;DHT22;271;51.114;13.780;2022-09-01T04:06:08;12.20;1.00
573;DHT22;271;51.114;13.780;2022-09-01T04:08:35;12.30;1.00
573;DHT22;271;51.114;13.780;2022-09-01T04:11:11;12.40;1.00
573;DHT22;271;51.114;13.780;2022-09-01T04:13:41;12.40;1.00
573;DHT22;271;51.114;13.780;2022-09-01T04:16:18;12.30;1.00
573;DHT22;271;51.114;13.780;2022-09-01T04:19:00;12.30;1.00
573;DHT22;271;51.114;13.780;2022-09-01T04:21:32;12.40;1.00
573;DHT22;271;51.114;13.780;2022-09-01T04:23:59;12.40;1.00
573;DHT22;271;51.114;13.780;2022-09-01T04:26:30;12.50;1.00
573;DHT22;271;51.114;13.780;2022-09-01T04:28:58;12.50;1.00
573;DHT22;271;51.114;13.780;2022-09-01T04:31:26;12.40;1.00
573;DHT22;271;51.114;13.780;2022-09-01T04:33:55;12.40;1.00
573;DHT22;271;51.114;13.780;2022-09-01T04:36:25;12.40;1.00
573;DHT22;271;51.114;13.780;2022-09-01T04:38:54;12.40;1.00
573;DHT22;271;51.114;13.780;2022-09-01T04:41:22;12.40;1.00
573;DHT22;271;51.114;13.780;2022-09-01T04:43:51;12.40;1.00
573;DHT22;271;51.114;13.780;2022-09-01T04:46:22;12.30;1.00
573;DHT22;271;51.114;13.780;2022-09-01T04:48:55;12.40;1.00
573;DHT22;271;51.114;13.780;2022-09-01T04:51:22;12.40;1.00
573;DHT22;271;51.114;13.780;2022-09-01T04:53:52;12.40;1.00
573;DHT22;271;51.114;13.780;2022-09-01T04:56:24;12.40;1.00
573;DHT22;271;51.114;13.780;2022-09-01T04:59:00;12.40;1.00
573;DHT22;271;51.114;13.780;2022-09-01T05:01:32;12.30;1.00
573;DHT22;271;51.114;13.780;2022-09-01T05:04:10;12.40;1.00
573;DHT22;271;51.114;13.780;2022-09-01T05:06:39;12.40;1.00
573;DHT22;271;51.114;13.780;2022-09-01T05:09:07;12.40;1.00
573;DHT22;271;51.114;13.780;2022-09-01T05:11:35;12.30;1.00
573;DHT22;271;51.114;13.780;2022-09-01T05:14:04;12.40;1.00
573;DHT22;271;51.114;13.780;2022-09-01T05:16:32;12.50;1.00
573;DHT22;271;51.114;13.780;2022-09-01T05:19:00;12.50;1.00
573;DHT22;271;51.114;13.780;2022-09-01T05:21:29;12.50;1.00
573;DHT22;271;51.114;13.780;2022-09-01T05:23:58;12.60;1.00
573;DHT22;271;51.114;13.780;2022-09-01T05:26:28;12.60;1.00
573;DHT22;271;51.114;13.780;2022-09-01T05:28:57;12.70;1.00
573;DHT22;271;51.114;13.780;2022-09-01T05:31:26;12.70;1.00
573;DHT22;271;51.114;13.780;2022-09-01T05:33:59;12.70;1.00
573;DHT22;271;51.114;13.780;2022-09-01T05:36:26;12.80;1.00
573;DHT22;271;51.114;13.780;2022-09-01T05:39:00;12.90;1.00
573;DHT22;271;51.114;13.780;2022-09-01T05:41:27;12.90;1.00
573;DHT22;271;51.114;13.780;2022-09-01T05:43:54;12.90;1.00
573;DHT22;271;51.114;13.780;2022-09-01T05:46:23;13.00;1.00
573;DHT22;271;51.114;13.780;2022-09-01T05:48:53;13.10;1.00
573;DHT22;271;51.114;13.780;2022-09-01T05:51:23;13.00;1.00
573;DHT22;271;51.114;13.780;2022-09-01T05:53:52;13.00;1.00
573;DHT22;271;51.114;13.780;2022-09-01T05:56:22;13.20;1.00
573;DHT22;271;51.114;13.780;2022-09-01T05:58:49;13.30;1.00
573;DHT22;271;51.114;13.780;2022-09-01T06:01:17;13.30;1.00
573;DHT22;271;51.114;13.780;2022-09-01T06:03:47;13.40;1.00
573;DHT22;271;51.114;13.780;2022-09-01T06:06:15;13.50;1.00
573;DHT22;271;51.114;13.780;2022-09-01T06:08:42;13.60;1.00
573;DHT22;271;51.114;13.780;2022-09-01T06:11:14;13.80;1.00
573;DHT22;271;51.114;13.780;2022-09-01T06:13:43;13.80;1.00
573;DHT22;271;51.114;13.780;2022-09-01T06:16:12;13.80;1.00
573;DHT22;271;51.114;13.780;2022-09-01T06:18:41;13.90;1.00
573;DHT22;271;51.114;13.780;2022-09-01T06:21:10;14.00;1.00
573;DHT22;271;51.114;13.780;2022-09-01T06:23:39;14.10;1.00
573;DHT22;271;51.114;13.780;2022-09-01T06:26:07;14.20;1.00
573;DHT22;271;51.114;13.780;2022-09-01T06:28:43;14.10;1.00
573;DHT22;271;51.114;13.780;2022-09-01T06:31:10;14.10;1.00
573;DHT22;271;51.114;13.780;2022-09-01T06:33:38;14.20;1.00
573;DHT22;271;51.114;13.780;2022-09-01T06:36:06;14.30;1.00
573;DHT22;271;51.114;13.780;2022-09-01T06:38:34;14.30;1.00
573;DHT22;271;51.114;13.780;2022-09-01T06:41:03;14.40;1.00
573;DHT22;271;51.114;13.780;2022-09-01T06:43:32;14.40;1.00
573;DHT22;271;51.114;13.780;2022-09-01T06:46:01;14.60;1.00
573;DHT22;271;51.114;13.780;2022-09-01T06:48:28;14.60;1.00
573;DHT22;271;51.114;13.780;2022-09-01T06:50:59;14.80;1.00
573;DHT22;271;51.114;13.780;2022-09-01T06:53:26;14.90;1.00
573;DHT22;271;51.114;13.780;2022-09-01T06:55:53;14.90;1.00
573;DHT22;271;51.114;13.780;2022-09-01T06:58:20;15.10;1.00
573;DHT22;271;51.114;13.780;2022-09-01T07:00:47;15.20;1.00
573;DHT22;271;51.114;13.780;2022-09-01T07:03:15;15.20;1.00
573;DHT22;271;51.114;13.780;2022-09-01T07:05:44;15.30;1.00
573;DHT22;271;51.114;13.780;2022-09-01T07:08:13;15.30;1.00
573;DHT22;271;51.114;13.780;2022-09-01T07:10:45;15.30;1.00
573;DHT22;271;51.114;13.780;2022-09-01T07:13:14;15.30;1.00
573;DHT22;271;51.114;13.780;2022-09-01T07:15:45;15.50;1.00
573;DHT22;271;51.114;13.780;2022-09-01T07:18:16;15.60;1.00
573;DHT22;271;51.114;13.780;2022-09-01T07:20:43;15.70;1.00
573;DHT22;271;51.114;13.780;2022-09-01T07:23:11;15.80;1.00
573;DHT22;271;51.114;13.780;2022-09-01T07:25:41;15.80;1.00
573;DHT22;271;51.114;13.780;2022-09-01T07:28:08;15.90;1.00
573;DHT22;271;51.114;13.780;2022-09-01T07:30:40;16.00;1.00
573;DHT22;271;51.114;13.780;2022-09-01T07:33:08;16.20;1.00
573;DHT22;271;51.114;13.780;2022-09-01T07:35:39;16.40;1.00
573;DHT22;271;51.114;13.780;2022-09-01T07:38:07;16.40;1.00
573;DHT22;271;51.114;13.780;2022-09-01T07:40:35;16.50;1.00
573;DHT22;271;51.114;13.780;2022-09-01T07:43:04;16.50;1.00
573;DHT22;271;51.114;13.780;2022-09-01T07:45:33;16.50;1.00
573;DHT22;271;51.114;13.780;2022-09-01T07:48:04;16.70;1.00
573;DHT22;271;51.114;13.780;2022-09-01T07:50:31;16.80;1.00
573;DHT22;271;51.114;13.780;2022-09-01T07:53:00;17.00;1.00
573;DHT22;271;51.114;13.780;2022-09-01T07:55:27;17.10;1.00
573;DHT22;271;51.114;13.780;2022-09-01T07:57:56;17.10;1.00
573;DHT22;271;51.114;13.780;2022-09-01T08:00:24;17.20;1.00
573;DHT22;271;51.114;13.780;2022-09-01T08:02:53;17.30;1.00
573;DHT22;271;51.114;13.780;2022-09-01T08:05:19;17.40;1.00
573;DHT22;271;51.114;13.780;2022-09-01T08:07:50;17.40;1.00
573;DHT22;271;51.114;13.780;2022-09-01T08:10:19;17.50;1.00
573;DHT22;271;51.114;13.780;2022-09-01T08:12:46;17.50;1.00
573;DHT22;271;51.114;13.780;2022-09-01T08:15:14;17.50;1.00
573;DHT22;271;51.114;13.780;2022-09-01T08:17:42;17.40;1.00
573;DHT22;271;51.114;13.780;2022-09-01T08:20:10;17.30;1.00
573;DHT22;271;51.114;13.780;2022-09-01T08:22:37;17.30;1.00
573;DHT22;271;51.114;13.780;2022-09-01T08:25:05;17.30;1.00
573;DHT22;271;51.114;13.780;2022-09-01T08:27:35;17.30;1.00
573;DHT22;271;51.114;13.780;2022-09-01T08:30:04;17.40;1.00
573;DHT22;271;51.114;13.780;2022-09-01T08:32:32;17.40;1.00
573;DHT22;271;51.114;13.780;2022-09-01T08:35:00;17.40;1.00
573;DHT22;271;51.114;13.780;2022-09-01T08:37:27;17.40;1.00
573;DHT22;271;51.114;13.780;2022-09-01T08:39:54;17.50;1.00
573;DHT22;271;51.114;13.780;2022-09-01T08:42:29;17.50;1.00
573;DHT22;271;51.114;13.780;2022-09-01T08:45:10;17.50;1.00
573;DHT22;271;51.114;13.780;2022-09-01T08:47:38;17.50;1.00
573;DHT22;271;51.114;13.780;2022-09-01T08:50:06;17.50;1.00
573;DHT22;271;51.114;13.780;2022-09-01T08:52:36;17.60;1.00
573;DHT22;271;51.114;13.780;2022-09-01T08:55:09;17.70;1.00
573;DHT22;271;51.114;13.780;2022-09-01T08:57:40;17.80;1.00
573;DHT22;271;51.114;13.780;2022-09-01T09:00:13;17.90;1.00
573;DHT22;271;51.114;13.780;2022-09-01T09:02:48;18.00;1.00
573;DHT22;271;51.114;13.780;2022-09-01T09:05:32;18.00;1.00
573;DHT22;271;51.114;13.780;2022-09-01T09:08:24;18.20;1.00
573;DHT22;271;51.114;13.780;2022-09-01T09:10:58;18.30;1.00
573;DHT22;271;51.114;13.780;2022-09-01T09:13:34;18.40;1.00
573;DHT22;271;51.114;13.780;2022-09-01T09:16:09;18.50;1.00
573;DHT22;271;51.114;13.780;2022-09-01T09:18:42;18.70;1.00
573;DHT22;271;51.114;13.780;2022-09-01T09:21:15;18.90;1.00
573;DHT22;271;51.114;13.780;2022-09-01T09:23:45;19.00;1.00
573;DHT22;271;51.114;13.780;2022-09-01T09:26:13;19.10;1.00
573;DHT22;271;51.114;13.780;2022-09-01T09:28:42;19.20;1.00
573;DHT22;271;51.114;13.780;2022-09-01T09:31:27;19.40;1.00
573;DHT22;271;51.114;13.780;2022-09-01T09:33:55;19.70;1.00
573;DHT22;271;51.114;13.780;2022-09-01T09:36:27;20.10;1.00
573;DHT22;271;51.114;13.780;2022-09-01T09:39:06;20.60;1.00
573;DHT22;271;51.114;13.780;2022-09-01T09:41:33;21.00;1.00
573;DHT22;271;51.114;13.780;2022-09-01T09:44:14;21.10;1.00
573;DHT22;271;51.114;13.780;2022-09-01T09:46:44;21.10;1.00
573;DHT22;271;51.114;13.780;2022-09-01T09:49:15;20.90;1.00
573;DHT22;271;51.114;13.780;2022-09-01T09:51:46;20.90;1.00
573;DHT22;271;51.114;13.780;2022-09-01T09:54:17;21.00;1.00
573;DHT22;271;51.114;13.780;2022-09-01T09:56:45;21.10;1.00
573;DHT22;271;51.114;13.780;2022-09-01T09:59:23;21.20;1.00
573;DHT22;271;51.114;13.780;2022-09-01T10:01:57;21.50;1.00
573;DHT22;271;51.114;13.780;2022-09-01T10:04:32;21.70;1.00
573;DHT22;271;51.114;13.780;2022-09-01T10:07:00;21.90;1.00
573;DHT22;271;51.114;13.780;2022-09-01T10:09:35;22.00;1.00
573;DHT22;271;51.114;13.780;2022-09-01T10:12:03;22.10;1.00
573;DHT22;271;51.114;13.780;2022-09-01T10:14:37;22.20;1.00
573;DHT22;271;51.114;13.780;2022-09-01T10:17:11;22.10;1.00
573;DHT22;271;51.114;13.780;2022-09-01T10:19:48;22.10;1.00
573;DHT22;271;51.114;13.780;2022-09-01T10:22:16;22.10;1.00
573;DHT22;271;51.114;13.780;2022-09-01T10:24:43;22.10;1.00
573;DHT22;271;51.114;13.780;2022-09-01T10:27:12;22.10;1.00
573;DHT22;271;51.114;13.780;2022-09-01T10:29:44;21.90;1.00
573;DHT22;271;51.114;13.780;2022-09-01T10:32:17;21.80;1.00
573;DHT22;271;51.114;13.780;2022-09-01T10:34:45;21.90;1.00
573;DHT22;271;51.114;13.780;2022-09-01T10:37:13;22.00;1.00
573;DHT22;271;51.114;13.780;2022-09-01T10:40:11;22.10;1.00
573;DHT22;271;51.114;13.780;2022-09-01T10:42:39;22.20;1.00
573;DHT22;271;51.114;13.780;2022-09-01T10:45:17;22.10;1.00
573;DHT22;271;51.114;13.780;2022-09-01T10:47:48;22.20;1.00
573;DHT22;271;51.114;13.780;2022-09-01T10:50:27;22.50;1.00
573;DHT22;271;51.114;13.780;2022-09-01T10:53:06;22.80;1.00
573;DHT22;271;51.114;13.780;2022-09-01T10:55:44;22.80;1.00
573;DHT22;271;51.114;13.780;2022-09-01T10:58:32;22.70;1.00
573;DHT22;271;51.114;13.780;2022-09-01T11:01:01;22.50;1.00
573;DHT22;271;51.114;13.780;2022-09-01T11:03:51;22.20;1.00
573;DHT22;271;51.114;13.780;2022-09-01T11:06:45;22.30;1.00
573;DHT22;271;51.114;13.780;2022-09-01T11:09:22;22.20;1.00
573;DHT22;271;51.114;13.780;2022-09-01T11:12:15;22.00;1.00
573;DHT22;271;51.114;13.780;2022-09-01T11:14:48;21.90;1.00
573;DHT22;271;51.114;13.780;2022-09-01T11:17:18;21.90;1.00
573;DHT22;271;51.114;13.780;2022-09-01T11:19:55;22.10;1.00
573;DHT22;271;51.114;13.780;2022-09-01T11:22:26;22.10;1.00
573;DHT22;271;51.114;13.780;2022-09-01T11:27:59;22.20;1.00
573;DHT22;271;51.114;13.780;2022-09-01T11:30:34;22.10;1.00
573;DHT22;271;51.114;13.780;2022-09-01T11:33:12;21.70;1.00
573;DHT22;271;51.114;13.780;2022-09-01T11:35:45;21.30;1.00
573;DHT22;271;51.114;13.780;2022-09-01T11:38:15;21.20;1.00
573;DHT22;271;51.114;13.780;2022-09-01T11:40:41;21.20;1.00
573;DHT22;271;51.114;13.780;2022-09-01T11:43:13;21.10;1.00
573;DHT22;271;51.114;13.780;2022-09-01T11:45:48;21.10;1.00
573;DHT22;271;51.114;13.780;2022-09-01T11:48:17;21.00;1.00
573;DHT22;271;51.114;13.780;2022-09-01T11:50:56;21.10;1.00
573;DHT22;271;51.114;13.780;2022-09-01T11:53:25;21.00;1.00
573;DHT22;271;51.114;13.780;2022-09-01T11:55:54;21.00;1.00
573;DHT22;271;51.114;13.780;2022-09-01T11:58:30;20.90;1.00
573;DHT22;271;51.114;13.780;2022-09-01T12:01:12;21.00;1.00
573;DHT22;271;51.114;13.780;2022-09-01T12:03:39;21.00;1.00
573;DHT22;271;51.114;13.780;2022-09-01T12:06:10;20.80;1.00
573;DHT22;271;51.114;13.780;2022-09-01T12:08:40;20.80;1.00
573;DHT22;271;51.114;13.780;2022-09-01T12:11:10;21.00;1.00
573;DHT22;271;51.114;13.780;2022-09-01T12:13:39;20.90;1.00
573;DHT22;271;51.114;13.780;2022-09-01T12:16:08;20.80;1.00
573;DHT22;271;51.114;13.780;2022-09-01T12:18:43;20.70;1.00
573;DHT22;271;51.114;13.780;2022-09-01T12:21:20;20.60;1.00
573;DHT22;271;51.114;13.780;2022-09-01T12:23:47;20.60;1.00
573;DHT22;271;51.114;13.780;2022-09-01T12:26:19;20.60;1.00
573;DHT22;271;51.114;13.780;2022-09-01T12:28:49;20.70;1.00
573;DHT22;271;51.114;13.780;2022-09-01T12:31:20;20.70;1.00
573;DHT22;271;51.114;13.780;2022-09-01T12:33:49;20.80;1.00
573;DHT22;271;51.114;13.780;2022-09-01T12:36:23;20.80;1.00
573;DHT22;271;51.114;13.780;2022-09-01T12:38:52;20.90;1.00
573;DHT22;271;51.114;13.780;2022-09-01T12:41:25;20.80;1.00
573;DHT22;271;51.114;13.780;2022-09-01T12:43:52;20.80;1.00
573;DHT22;271;51.114;13.780;2022-09-01T12:46:40;20.80;1.00
573;DHT22;271;51.114;13.780;2022-09-01T12:49:17;20.90;1.00
573;DHT22;271;51.114;13.780;2022-09-01T12:51:49;20.90;1.00
573;DHT22;271;51.114;13.780;2022-09-01T12:54:26;20.90;1.00
573;DHT22;271;51.114;13.780;2022-09-01T12:56:53;21.10;1.00
573;DHT22;271;51.114;13.780;2022-09-01T12:59:25;21.10;1.00
573;DHT22;271;51.114;13.780;2022-09-01T13:01:52;21.20;1.00
573;DHT22;271;51.114;13.780;2022-09-01T13:04:25;21.20;1.00
573;DHT22;271;51.114;13.780;2022-09-01T13:06:59;21.20;1.00
573;DHT22;271;51.114;13.780;2022-09-01T13:09:26;21.10;1.00
573;DHT22;271;51.114;13.780;2022-09-01T13:12:08;21.10;1.00
573;DHT22;271;51.114;13.780;2022-09-01T13:14:35;21.00;1.00
573;DHT22;271;51.114;13.780;2022-09-01T13:17:02;21.10;1.00
573;DHT22;271;51.114;13.780;2022-09-01T13:19:30;21.20;1.00
573;DHT22;271;51.114;13.780;2022-09-01T13:21:59;21.30;1.00
573;DHT22;271;51.114;13.780;2022-09-01T13:24:25;21.30;1.00
573;DHT22;271;51.114;13.780;2022-09-01T13:26:52;21.20;1.00
573;DHT22;271;51.114;13.780;2022-09-01T13:29:22;21.20;1.00
573;DHT22;271;51.114;13.780;2022-09-01T13:31:49;21.00;1.00
573;DHT22;271;51.114;13.780;2022-09-01T13:34:16;20.90;1.00
573;DHT22;271;51.114;13.780;2022-09-01T13:36:42;20.80;1.00
573;DHT22;271;51.114;13.780;2022-09-01T13:39:10;20.80;1.00
573;DHT22;271;51.114;13.780;2022-09-01T13:41:37;20.90;1.00
573;DHT22;271;51.114;13.780;2022-09-01T13:44:04;20.80;1.00
573;DHT22;271;51.114;13.780;2022-09-01T13:46:34;20.70;1.00
573;DHT22;271;51.114;13.780;2022-09-01T13:49:01;20.60;1.00
573;DHT22;271;51.114;13.780;2022-09-01T13:51:28;20.60;1.00
573;DHT22;271;51.114;13.780;2022-09-01T13:53:55;20.60;1.00
573;DHT22;271;51.114;13.780;2022-09-01T13:56:23;20.50;1.00
573;DHT22;271;51.114;13.780;2022-09-01T13:58:50;20.40;1.00
573;DHT22;271;51.114;13.780;2022-09-01T14:01:20;20.40;1.00
573;DHT22;271;51.114;13.780;2022-09-01T14:03:55;20.30;1.00
573;DHT22;271;51.114;13.780;2022-09-01T14:06:23;20.40;1.00
573;DHT22;271;51.114;13.780;2022-09-01T14:08:50;20.20;1.00
573;DHT22;271;51.114;13.780;2022-09-01T14:11:18;20.20;1.00
573;DHT22;271;51.114;13.780;2022-09-01T14:13:53;20.20;1.00
573;DHT22;271;51.114;13.780;2022-09-01T14:16:22;20.70;1.00
573;DHT22;271;51.114;13.780;2022-09-01T14:19:11;21.40;1.00
573;DHT22;271;51.114;13.780;2022-09-01T14:22:03;21.80;1.00
573;DHT22;271;51.114;13.780;2022-09-01T14:24:33;22.10;1.00
573;DHT22;271;51.114;13.780;2022-09-01T14:27:23;22.10;1.00
573;DHT22;271;51.114;13.780;2022-09-01T14:29:55;22.00;1.00
573;DHT22;271;51.114;13.780;2022-09-01T14:32:23;21.80;1.00
573;DHT22;271;51.114;13.780;2022-09-01T14:37:41;21.70;1.00
573;DHT22;271;51.114;13.780;2022-09-01T14:40:13;21.60;1.00
573;DHT22;271;51.114;13.780;2022-09-01T14:42:40;21.30;1.00
573;DHT22;271;51.114;13.780;2022-09-01T14:45:12;21.10;1.00
573;DHT22;271;51.114;13.780;2022-09-01T14:47:40;21.00;1.00
573;DHT22;271;51.114;13.780;2022-09-01T14:50:09;21.00;1.00
573;DHT22;271;51.114;13.780;2022-09-01T14:52:36;20.90;1.00
573;DHT22;271;51.114;13.780;2022-09-01T14:55:04;20.90;1.00
573;DHT22;271;51.114;13.780;2022-09-01T14:57:31;20.80;1.00
573;DHT22;271;51.114;13.780;2022-09-01T15:00:04;20.60;1.00
573;DHT22;271;51.114;13.780;2022-09-01T15:02:35;20.40;1.00
573;DHT22;271;51.114;13.780;2022-09-01T15:05:02;20.40;1.00
573;DHT22;271;51.114;13.780;2022-09-01T15:07:29;20.30;1.00
573;DHT22;271;51.114;13.780;2022-09-01T15:09:59;20.30;1.00
573;DHT22;271;51.114;13.780;2022-09-01T15:12:29;20.10;1.00
573;DHT22;271;51.114;13.780;2022-09-01T15:14:56;20.00;1.00
573;DHT22;271;51.114;13.780;2022-09-01T15:17:23;20.00;1.00
573;DHT22;271;51.114;13.780;2022-09-01T15:19:51;19.90;1.00
573;DHT22;271;51.114;13.780;2022-09-01T15:22:21;19.90;1.00
573;DHT22;271;51.114;13.780;2022-09-01T15:25:03;19.80;1.00
573;DHT22;271;51.114;13.780;2022-09-01T15:27:30;19.70;1.00
573;DHT22;271;51.114;13.780;2022-09-01T15:29:57;19.70;1.00
573;DHT22;271;51.114;13.780;2022-09-01T15:32:24;19.60;1.00
573;DHT22;271;51.114;13.780;2022-09-01T15:34:56;19.60;1.00
573;DHT22;271;51.114;13.780;2022-09-01T15:37:23;19.50;1.00
573;DHT22;271;51.114;13.780;2022-09-01T15:39:50;19.50;1.00
573;DHT22;271;51.114;13.780;2022-09-01T15:42:17;19.50;1.00
573;DHT22;271;51.114;13.780;2022-09-01T15:44:44;19.40;1.00
573;DHT22;271;51.114;13.780;2022-09-01T15:47:20;19.40;1.00
573;DHT22;271;51.114;13.780;2022-09-01T15:49:47;19.30;1.00
573;DHT22;271;51.114;13.780;2022-09-01T15:52:15;19.30;1.00
573;DHT22;271;51.114;13.780;2022-09-01T15:54:43;19.20;1.00
573;DHT22;271;51.114;13.780;2022-09-01T15:57:10;19.20;1.00
573;DHT22;271;51.114;13.780;2022-09-01T15:59:37;19.10;1.00
573;DHT22;271;51.114;13.780;2022-09-01T16:02:10;19.10;1.00
573;DHT22;271;51.114;13.780;2022-09-01T16:04:39;19.10;1.00
573;DHT22;271;51.114;13.780;2022-09-01T16:07:06;19.00;1.00
573;DHT22;271;51.114;13.780;2022-09-01T16:09:34;19.00;1.00
573;DHT22;271;51.114;13.780;2022-09-01T16:12:08;19.00;1.00
573;DHT22;271;51.114;13.780;2022-09-01T16:14:34;18.90;1.00
573;DHT22;271;51.114;13.780;2022-09-01T16:17:04;18.90;1.00
573;DHT22;271;51.114;13.780;2022-09-01T16:19:41;18.80;1.00
573;DHT22;271;51.114;13.780;2022-09-01T16:22:19;18.80;1.00
573;DHT22;271;51.114;13.780;2022-09-01T16:24:51;18.70;1.00
573;DHT22;271;51.114;13.780;2022-09-01T16:27:20;18.80;1.00
573;DHT22;271;51.114;13.780;2022-09-01T16:29:50;18.70;1.00
573;DHT22;271;51.114;13.780;2022-09-01T16:32:25;18.70;1.00
573;DHT22;271;51.114;13.780;2022-09-01T16:34:53;18.70;1.00
573;DHT22;271;51.114;13.780;2022-09-01T16:37:40;18.60;1.00
573;DHT22;271;51.114;13.780;2022-09-01T16:40:28;18.60;1.00
573;DHT22;271;51.114;13.780;2022-09-01T16:43:05;18.60;1.00
573;DHT22;271;51.114;13.780;2022-09-01T16:45:43;18.50;1.00
573;DHT22;271;51.114;13.780;2022-09-01T16:48:24;18.50;1.00
573;DHT22;271;51.114;13.780;2022-09-01T16:50:58;18.60;1.00
573;DHT22;271;51.114;13.780;2022-09-01T16:56:23;18.40;1.00
573;DHT22;271;51.114;13.780;2022-09-01T16:58:58;18.40;1.00
573;DHT22;271;51.114;13.780;2022-09-01T17:01:43;18.30;1.00
573;DHT22;271;51.114;13.780;2022-09-01T17:04:27;18.30;1.00
573;DHT22;271;51.114;13.780;2022-09-01T17:07:02;18.30;1.00